Confins, Brazil

4:06 PM -03 on June 26, 2017 (GMT -0300)
Tancredo Neves International | | Change Station

Elev 2713 ft 19.63 °S, 43.97 °W | Updated 1 hour ago

Mostly Cloudy
Mostly Cloudy
68 °F
Feels Like 68 °F
N
15
Wind Variable Wind from East

Today
High -- | Low -- °F
--% Chance of Precip.
Yesterday
High -- | Low -- °F
Precip. -- in
Pressure 30.24 in
Visibility 6.2 miles
Clouds Mostly Cloudy 3000 ft
Dew Point 55 °F
Humidity 64%
Rainfall 0.00 in
Snow Depth Not available.
6:30 AM 5:27 PM
Waxing Crescent, 10% visible
METAR SBCF 261800Z 09013KT 9999 BKN030 20/13 Q1024
Pressure 30.24 in
Visibility 6.2 miles
Clouds Mostly Cloudy 3000 ft
Dew Point 55 °F
Humidity 64%
Rainfall 0.00 in
Snow Depth Not available.
6:30 AM 5:27 PM
Waxing Crescent, 10% visible
METAR SBCF 261800Z 09013KT 9999 BKN030 20/13 Q1024

Get Severe Weather Alerts

Thanks for signing up!

Be on the lookout for a verification email in your inbox.

You'll start receiving the daily forecast at 6 AM.

×

10-Day Weather Forecast

No radar image for this location.
×

Almanac

Astronomy

Jun. 26, 2017 Rise Set
Actual Time
Civil Twilight
Nautical Twilight
Astronomical Twilight
Moon
Length of Visible Light
Length of Day
Tomorrow will be .
, % of the Moon is Illuminated

Today's Extremes

Country Highs Country Lows

Community

WunderPhotos

Category 6

Welcome to Category 6. This is the collective home for Weather Underground's featured writeups by Dr. Jeff Masters (right), Bob Henson (left), Chris Burt, and other regular contributors.

Nearby

Air Quality

  Air Quality AQ Index Pollutant
Not available.

Snow Depth

Station Depth Elevation

Earthquake Activity

City Distance Mag. Time & Date
Minimum magnitude displayed is 2.5.

Coastal Water Temperatures

Place Temperature

Stations

Nearby Weather Stations

Station Location Temp. Windchill Dew Point Humidity Wind Precip. Elev Updated Type